This is the latest recevied weather packets stored in our database for station/object W6MAF. If no packets are shown the sender has not sent any weather packets the latest 10 day(s).
| Time | Temp. | Humidity | Pressure | Rain* | Wind** | Luminosity | Snow |
|---|---|---|---|---|---|---|---|
| 1777791305 | 15.56° C | 17% | - | 0 mm | 2.68 m/s, 174° | - | - |
| 1777791003 | 15.56° C | 18% | - | 0 mm | 3.58 m/s, 169° | - | - |
| 1777790407 | 15° C | 24% | - | 0 mm | 4.02 m/s, 187° | - | - |
| 1777790110 | 15.56° C | 28% | - | 0 mm | 0 m/s | - | - |
| 1777789812 | 15.56° C | 21% | - | 0 mm | 1.34 m/s, 152° | - | - |
| 1777789514 | 16.11° C | 19% | - | 0 mm | 1.79 m/s, 179° | - | - |
| 1777789213 | 16.11° C | 18% | - | 0 mm | 2.24 m/s, 136° | - | - |
| 1777788916 | 16.11° C | 17% | - | 0 mm | 2.24 m/s, 131° | - | - |
| 1777788618 | 16.67° C | 17% | - | 0 mm | 3.58 m/s, 79° | - | - |
| 1777788320 | 16.67° C | 16% | - | 0 mm | 1.34 m/s, 136° | - | - |
| 1777788022 | 16.67° C | 16% | - | 0 mm | 2.68 m/s, 127° | - | - |
| 1777787725 | 16.67° C | 16% | - | 0 mm | 3.58 m/s, 122° | - | - |
| 1777787424 | 16.67° C | 16% | - | 0 mm | 3.58 m/s, 156° | - | - |
| 1777787126 | 16.67° C | 16% | - | 0 mm | 3.58 m/s, 134° | - | - |
| 1777786828 | 16.67° C | 16% | - | 0 mm | 4.02 m/s, 155° | - | - |
| 1777786531 | 16.67° C | 15% | - | 0 mm | 4.92 m/s, 145° | - | - |
| 1777786233 | 17.22° C | 15% | - | 0 mm | 4.92 m/s, 149° | - | - |
| 1777785967 | 17.22° C | 14% | - | 0 mm | 4.47 m/s, 163° | - | - |
| 1777785935 | 17.22° C | 14% | - | 0 mm | 4.47 m/s, 163° | - | - |
| 1777785634 | 17.22° C | 14% | - | 0 mm | 6.26 m/s, 170° | - | - |
| 1777785039 | 17.22° C | 14% | - | 0 mm | 5.36 m/s, 155° | - | - |
| 1777784742 | 17.22° C | 14% | - | 0 mm | 5.81 m/s, 177° | - | - |
| 1777784444 | 17.22° C | 14% | - | 0 mm | 5.36 m/s, 155° | - | - |
| 1777784146 | 17.78° C | 14% | - | 0 mm | 4.92 m/s, 181° | - | - |
| 1777783845 | 17.78° C | 13% | - | 0 mm | 4.92 m/s, 179° | - | - |
* Rain latest hour (hover to see other rain measurements)
** Current wind speed in m/s (hover to see current wind gust speed)